sensor_id;sensor_type;location;lat;lon;timestamp;P1;durP1;ratioP1;P2;durP2;ratioP2
9188;SDS011;34313;50.780;6.084;2023-03-04T00:01:31;60.40;;;24.37;;
9188;SDS011;34313;50.780;6.084;2023-03-04T00:03:56;63.77;;;25.33;;
9188;SDS011;34313;50.780;6.084;2023-03-04T00:06:22;61.10;;;25.93;;
9188;SDS011;34313;50.780;6.084;2023-03-04T00:08:47;61.20;;;24.67;;
9188;SDS011;34313;50.780;6.084;2023-03-04T00:11:12;61.60;;;24.27;;
9188;SDS011;34313;50.780;6.084;2023-03-04T00:13:38;70.97;;;26.13;;
9188;SDS011;34313;50.780;6.084;2023-03-04T00:16:03;62.60;;;26.80;;
9188;SDS011;34313;50.780;6.084;2023-03-04T00:18:29;67.90;;;26.03;;
9188;SDS011;34313;50.780;6.084;2023-03-04T00:20:54;63.23;;;26.90;;
9188;SDS011;34313;50.780;6.084;2023-03-04T00:23:19;71.17;;;27.30;;
9188;SDS011;34313;50.780;6.084;2023-03-04T00:25:45;63.40;;;27.70;;
9188;SDS011;34313;50.780;6.084;2023-03-04T00:28:10;60.47;;;26.20;;
9188;SDS011;34313;50.780;6.084;2023-03-04T00:30:35;68.43;;;27.87;;
9188;SDS011;34313;50.780;6.084;2023-03-04T00:33:01;66.77;;;27.07;;
9188;SDS011;34313;50.780;6.084;2023-03-04T00:35:26;65.20;;;27.90;;
9188;SDS011;34313;50.780;6.084;2023-03-04T00:37:51;71.20;;;27.67;;
9188;SDS011;34313;50.780;6.084;2023-03-04T00:40:17;70.60;;;28.53;;
9188;SDS011;34313;50.780;6.084;2023-03-04T00:42:42;70.70;;;28.60;;
9188;SDS011;34313;50.780;6.084;2023-03-04T00:45:08;68.17;;;28.27;;
9188;SDS011;34313;50.780;6.084;2023-03-04T00:47:33;65.67;;;27.90;;
9188;SDS011;34313;50.780;6.084;2023-03-04T00:49:59;70.77;;;29.20;;
9188;SDS011;34313;50.780;6.084;2023-03-04T00:52:24;70.83;;;28.50;;
9188;SDS011;34313;50.780;6.084;2023-03-04T00:54:50;66.93;;;26.07;;
9188;SDS011;34313;50.780;6.084;2023-03-04T00:57:15;65.20;;;26.50;;
9188;SDS011;34313;50.780;6.084;2023-03-04T00:59:41;71.37;;;27.93;;
9188;SDS011;34313;50.780;6.084;2023-03-04T01:02:08;68.90;;;27.70;;
9188;SDS011;34313;50.780;6.084;2023-03-04T01:04:34;69.40;;;27.60;;
9188;SDS011;34313;50.780;6.084;2023-03-04T01:07:00;68.87;;;27.93;;
9188;SDS011;34313;50.780;6.084;2023-03-04T01:09:25;69.37;;;28.33;;
9188;SDS011;34313;50.780;6.084;2023-03-04T01:11:51;64.57;;;27.20;;
9188;SDS011;34313;50.780;6.084;2023-03-04T01:14:17;70.30;;;27.40;;
9188;SDS011;34313;50.780;6.084;2023-03-04T01:16:43;63.03;;;28.10;;
9188;SDS011;34313;50.780;6.084;2023-03-04T01:19:08;68.13;;;27.20;;
9188;SDS011;34313;50.780;6.084;2023-03-04T01:21:34;67.07;;;26.57;;
9188;SDS011;34313;50.780;6.084;2023-03-04T01:23:59;65.40;;;24.70;;
9188;SDS011;34313;50.780;6.084;2023-03-04T01:26:25;63.30;;;25.60;;
9188;SDS011;34313;50.780;6.084;2023-03-04T01:28:50;61.30;;;27.30;;
9188;SDS011;34313;50.780;6.084;2023-03-04T01:31:16;59.57;;;26.03;;
9188;SDS011;34313;50.780;6.084;2023-03-04T01:33:41;72.77;;;26.53;;
9188;SDS011;34313;50.780;6.084;2023-03-04T01:36:06;74.53;;;26.10;;
9188;SDS011;34313;50.780;6.084;2023-03-04T01:38:32;58.80;;;25.67;;
9188;SDS011;34313;50.780;6.084;2023-03-04T01:40:57;64.87;;;26.17;;
9188;SDS011;34313;50.780;6.084;2023-03-04T01:43:27;66.40;;;25.90;;
9188;SDS011;34313;50.780;6.084;2023-03-04T01:45:54;57.90;;;24.00;;
9188;SDS011;34313;50.780;6.084;2023-03-04T01:48:24;60.63;;;23.77;;
9188;SDS011;34313;50.780;6.084;2023-03-04T01:51:05;51.17;;;23.43;;
9188;SDS011;34313;50.780;6.084;2023-03-04T01:53:35;60.77;;;23.60;;
9188;SDS011;34313;50.780;6.084;2023-03-04T01:56:01;58.07;;;22.60;;
9188;SDS011;34313;50.780;6.084;2023-03-04T01:58:43;45.43;;;20.70;;
9188;SDS011;34313;50.780;6.084;2023-03-04T02:01:12;53.70;;;23.00;;
9188;SDS011;34313;50.780;6.084;2023-03-04T02:03:38;52.37;;;22.30;;
9188;SDS011;34313;50.780;6.084;2023-03-04T02:06:04;47.10;;;21.27;;
9188;SDS011;34313;50.780;6.084;2023-03-04T02:08:30;64.80;;;22.50;;
9188;SDS011;34313;50.780;6.084;2023-03-04T02:10:55;45.93;;;20.37;;
9188;SDS011;34313;50.780;6.084;2023-03-04T02:13:21;49.10;;;20.90;;
9188;SDS011;34313;50.780;6.084;2023-03-04T02:15:46;42.13;;;19.27;;
9188;SDS011;34313;50.780;6.084;2023-03-04T02:18:21;43.23;;;18.90;;
9188;SDS011;34313;50.780;6.084;2023-03-04T02:23:45;60.30;;;21.83;;
9188;SDS011;34313;50.780;6.084;2023-03-04T02:26:49;44.83;;;18.60;;
9188;SDS011;34313;50.780;6.084;2023-03-04T02:29:08;42.47;;;17.60;;
9188;SDS011;34313;50.780;6.084;2023-03-04T02:31:39;42.83;;;18.03;;
9188;SDS011;34313;50.780;6.084;2023-03-04T02:34:09;38.93;;;17.73;;
9188;SDS011;34313;50.780;6.084;2023-03-04T02:36:38;38.97;;;18.67;;
9188;SDS011;34313;50.780;6.084;2023-03-04T02:39:06;39.80;;;16.63;;
9188;SDS011;34313;50.780;6.084;2023-03-04T02:41:36;41.33;;;17.20;;
9188;SDS011;34313;50.780;6.084;2023-03-04T02:44:02;44.00;;;18.13;;
9188;SDS011;34313;50.780;6.084;2023-03-04T02:46:28;40.60;;;17.73;;
9188;SDS011;34313;50.780;6.084;2023-03-04T02:48:53;37.43;;;16.57;;
9188;SDS011;34313;50.780;6.084;2023-03-04T02:51:19;35.87;;;15.57;;
9188;SDS011;34313;50.780;6.084;2023-03-04T02:53:45;37.03;;;15.07;;
9188;SDS011;34313;50.780;6.084;2023-03-04T02:56:10;37.43;;;15.47;;
9188;SDS011;34313;50.780;6.084;2023-03-04T02:58:36;45.23;;;15.37;;
9188;SDS011;34313;50.780;6.084;2023-03-04T03:01:02;31.57;;;13.97;;
9188;SDS011;34313;50.780;6.084;2023-03-04T03:03:28;45.87;;;14.87;;
9188;SDS011;34313;50.780;6.084;2023-03-04T03:05:54;33.07;;;14.23;;
9188;SDS011;34313;50.780;6.084;2023-03-04T03:08:19;33.17;;;14.17;;
9188;SDS011;34313;50.780;6.084;2023-03-04T03:10:45;29.03;;;12.83;;
9188;SDS011;34313;50.780;6.084;2023-03-04T03:13:10;40.50;;;13.83;;
9188;SDS011;34313;50.780;6.084;2023-03-04T03:15:35;30.33;;;13.23;;
9188;SDS011;34313;50.780;6.084;2023-03-04T03:18:06;30.70;;;12.97;;
9188;SDS011;34313;50.780;6.084;2023-03-04T03:20:31;31.00;;;12.10;;
9188;SDS011;34313;50.780;6.084;2023-03-04T03:22:57;28.80;;;11.67;;
9188;SDS011;34313;50.780;6.084;2023-03-04T03:25:22;29.53;;;12.80;;
9188;SDS011;34313;50.780;6.084;2023-03-04T03:27:47;25.97;;;10.93;;
9188;SDS011;34313;50.780;6.084;2023-03-04T03:30:13;31.17;;;11.90;;
9188;SDS011;34313;50.780;6.084;2023-03-04T03:32:39;30.20;;;12.10;;
9188;SDS011;34313;50.780;6.084;2023-03-04T03:35:04;31.63;;;12.33;;
9188;SDS011;34313;50.780;6.084;2023-03-04T03:37:30;27.87;;;11.40;;
9188;SDS011;34313;50.780;6.084;2023-03-04T03:39:55;24.63;;;10.93;;
9188;SDS011;34313;50.780;6.084;2023-03-04T03:42:21;29.47;;;11.13;;
9188;SDS011;34313;50.780;6.084;2023-03-04T03:44:46;32.63;;;11.70;;
9188;SDS011;34313;50.780;6.084;2023-03-04T03:47:11;28.13;;;11.70;;
9188;SDS011;34313;50.780;6.084;2023-03-04T03:49:37;26.70;;;11.13;;
9188;SDS011;34313;50.780;6.084;2023-03-04T03:52:02;31.20;;;11.23;;
9188;SDS011;34313;50.780;6.084;2023-03-04T03:54:27;37.13;;;11.57;;
9188;SDS011;34313;50.780;6.084;2023-03-04T03:56:53;34.20;;;10.87;;
9188;SDS011;34313;50.780;6.084;2023-03-04T03:59:18;32.23;;;10.57;;
9188;SDS011;34313;50.780;6.084;2023-03-04T04:01:43;24.43;;;10.80;;
9188;SDS011;34313;50.780;6.084;2023-03-04T04:04:09;37.93;;;10.83;;
9188;SDS011;34313;50.780;6.084;2023-03-04T04:06:34;26.43;;;10.50;;
9188;SDS011;34313;50.780;6.084;2023-03-04T04:08:59;20.23;;;8.53;;
9188;SDS011;34313;50.780;6.084;2023-03-04T04:11:25;28.70;;;10.00;;
9188;SDS011;34313;50.780;6.084;2023-03-04T04:13:50;30.03;;;9.90;;
9188;SDS011;34313;50.780;6.084;2023-03-04T04:16:15;25.07;;;10.40;;
9188;SDS011;34313;50.780;6.084;2023-03-04T04:18:41;35.03;;;9.13;;
9188;SDS011;34313;50.780;6.084;2023-03-04T04:21:06;32.90;;;11.57;;
9188;SDS011;34313;50.780;6.084;2023-03-04T04:23:32;25.50;;;11.00;;
9188;SDS011;34313;50.780;6.084;2023-03-04T04:25:57;25.20;;;10.43;;
9188;SDS011;34313;50.780;6.084;2023-03-04T04:28:23;23.37;;;9.87;;
9188;SDS011;34313;50.780;6.084;2023-03-04T04:30:48;32.40;;;10.83;;
9188;SDS011;34313;50.780;6.084;2023-03-04T04:33:14;27.37;;;9.70;;
9188;SDS011;34313;50.780;6.084;2023-03-04T04:35:39;28.60;;;9.80;;
9188;SDS011;34313;50.780;6.084;2023-03-04T04:38:05;27.63;;;10.43;;
9188;SDS011;34313;50.780;6.084;2023-03-04T04:40:31;28.70;;;10.20;;
9188;SDS011;34313;50.780;6.084;2023-03-04T04:42:57;21.27;;;9.90;;
9188;SDS011;34313;50.780;6.084;2023-03-04T04:45:22;21.23;;;8.90;;
9188;SDS011;34313;50.780;6.084;2023-03-04T04:47:49;27.20;;;10.23;;
9188;SDS011;34313;50.780;6.084;2023-03-04T04:50:15;30.23;;;10.63;;
9188;SDS011;34313;50.780;6.084;2023-03-04T04:52:41;27.73;;;10.03;;
9188;SDS011;34313;50.780;6.084;2023-03-04T04:55:06;24.30;;;9.47;;
9188;SDS011;34313;50.780;6.084;2023-03-04T04:57:32;25.00;;;10.00;;
9188;SDS011;34313;50.780;6.084;2023-03-04T04:59:58;27.33;;;9.90;;
9188;SDS011;34313;50.780;6.084;2023-03-04T05:02:23;28.50;;;10.20;;
9188;SDS011;34313;50.780;6.084;2023-03-04T05:04:48;25.30;;;11.03;;
9188;SDS011;34313;50.780;6.084;2023-03-04T05:07:13;34.60;;;10.93;;
9188;SDS011;34313;50.780;6.084;2023-03-04T05:09:39;25.00;;;10.10;;
9188;SDS011;34313;50.780;6.084;2023-03-04T05:12:04;32.13;;;10.30;;
9188;SDS011;34313;50.780;6.084;2023-03-04T05:14:30;30.83;;;8.97;;
9188;SDS011;34313;50.780;6.084;2023-03-04T05:16:55;23.70;;;9.20;;
9188;SDS011;34313;50.780;6.084;2023-03-04T05:19:20;22.53;;;8.20;;
9188;SDS011;34313;50.780;6.084;2023-03-04T05:21:46;30.43;;;9.50;;
9188;SDS011;34313;50.780;6.084;2023-03-04T05:24:11;30.87;;;9.60;;
9188;SDS011;34313;50.780;6.084;2023-03-04T05:26:37;21.47;;;9.07;;
9188;SDS011;34313;50.780;6.084;2023-03-04T05:29:02;25.10;;;7.60;;
9188;SDS011;34313;50.780;6.084;2023-03-04T05:31:28;19.73;;;8.60;;
9188;SDS011;34313;50.780;6.084;2023-03-04T05:33:53;21.13;;;9.00;;
9188;SDS011;34313;50.780;6.084;2023-03-04T05:36:19;24.77;;;8.57;;
9188;SDS011;34313;50.780;6.084;2023-03-04T05:38:45;20.90;;;8.27;;
9188;SDS011;34313;50.780;6.084;2023-03-04T05:41:10;26.93;;;9.20;;
9188;SDS011;34313;50.780;6.084;2023-03-04T05:43:35;26.10;;;9.03;;
9188;SDS011;34313;50.780;6.084;2023-03-04T05:46:02;21.27;;;8.20;;
9188;SDS011;34313;50.780;6.084;2023-03-04T05:48:28;28.80;;;9.20;;
9188;SDS011;34313;50.780;6.084;2023-03-04T05:50:55;28.90;;;8.80;;
9188;SDS011;34313;50.780;6.084;2023-03-04T05:53:22;28.43;;;9.40;;
9188;SDS011;34313;50.780;6.084;2023-03-04T05:55:47;32.60;;;9.70;;
9188;SDS011;34313;50.780;6.084;2023-03-04T05:58:13;25.33;;;10.47;;
9188;SDS011;34313;50.780;6.084;2023-03-04T06:00:40;26.50;;;10.70;;
9188;SDS011;34313;50.780;6.084;2023-03-04T06:03:05;28.67;;;10.47;;
9188;SDS011;34313;50.780;6.084;2023-03-04T06:05:31;40.20;;;11.03;;
9188;SDS011;34313;50.780;6.084;2023-03-04T06:07:56;29.73;;;10.20;;
9188;SDS011;34313;50.780;6.084;2023-03-04T06:10:22;25.30;;;9.67;;
9188;SDS011;34313;50.780;6.084;2023-03-04T06:12:48;32.87;;;10.20;;
9188;SDS011;34313;50.780;6.084;2023-03-04T06:15:13;25.03;;;9.50;;
9188;SDS011;34313;50.780;6.084;2023-03-04T06:17:39;27.90;;;9.30;;
9188;SDS011;34313;50.780;6.084;2023-03-04T06:20:06;28.30;;;9.50;;
9188;SDS011;34313;50.780;6.084;2023-03-04T06:22:33;22.43;;;8.80;;
9188;SDS011;34313;50.780;6.084;2023-03-04T06:24:59;20.83;;;9.47;;
9188;SDS011;34313;50.780;6.084;2023-03-04T06:27:24;30.80;;;9.60;;
9188;SDS011;34313;50.780;6.084;2023-03-04T06:29:50;22.27;;;8.67;;
9188;SDS011;34313;50.780;6.084;2023-03-04T06:32:15;24.80;;;9.17;;
9188;SDS011;34313;50.780;6.084;2023-03-04T06:34:40;19.73;;;9.10;;
9188;SDS011;34313;50.780;6.084;2023-03-04T06:37:06;21.53;;;7.87;;
9188;SDS011;34313;50.780;6.084;2023-03-04T06:39:31;21.67;;;8.17;;
9188;SDS011;34313;50.780;6.084;2023-03-04T06:41:57;33.93;;;9.00;;
9188;SDS011;34313;50.780;6.084;2023-03-04T06:44:22;21.80;;;8.33;;
9188;SDS011;34313;50.780;6.084;2023-03-04T06:46:47;16.93;;;7.80;;
9188;SDS011;34313;50.780;6.084;2023-03-04T06:49:13;20.50;;;8.53;;
9188;SDS011;34313;50.780;6.084;2023-03-04T06:51:38;21.77;;;8.07;;
9188;SDS011;34313;50.780;6.084;2023-03-04T06:54:04;19.67;;;8.00;;
9188;SDS011;34313;50.780;6.084;2023-03-04T06:56:29;20.70;;;8.30;;
9188;SDS011;34313;50.780;6.084;2023-03-04T06:58:55;15.27;;;7.13;;
9188;SDS011;34313;50.780;6.084;2023-03-04T07:01:21;21.00;;;7.50;;
9188;SDS011;34313;50.780;6.084;2023-03-04T07:03:50;27.13;;;9.37;;
9188;SDS011;34313;50.780;6.084;2023-03-04T07:06:18;22.87;;;7.27;;
9188;SDS011;34313;50.780;6.084;2023-03-04T07:08:46;19.00;;;8.80;;
9188;SDS011;34313;50.780;6.084;2023-03-04T07:11:13;24.20;;;8.17;;
9188;SDS011;34313;50.780;6.084;2023-03-04T07:13:39;27.70;;;7.30;;
9188;SDS011;34313;50.780;6.084;2023-03-04T07:16:09;16.03;;;6.47;;
9188;SDS011;34313;50.780;6.084;2023-03-04T07:18:36;19.03;;;7.37;;
9188;SDS011;34313;50.780;6.084;2023-03-04T07:21:02;18.23;;;6.83;;
9188;SDS011;34313;50.780;6.084;2023-03-04T07:23:28;16.27;;;6.43;;
9188;SDS011;34313;50.780;6.084;2023-03-04T07:25:54;14.67;;;6.93;;
9188;SDS011;34313;50.780;6.084;2023-03-04T07:28:19;18.03;;;6.30;;
9188;SDS011;34313;50.780;6.084;2023-03-04T07:30:44;22.30;;;6.17;;
9188;SDS011;34313;50.780;6.084;2023-03-04T07:33:10;15.90;;;5.73;;
9188;SDS011;34313;50.780;6.084;2023-03-04T07:35:36;17.30;;;5.90;;
9188;SDS011;34313;50.780;6.084;2023-03-04T07:38:02;17.20;;;6.40;;
9188;SDS011;34313;50.780;6.084;2023-03-04T07:40:27;18.37;;;5.37;;
9188;SDS011;34313;50.780;6.084;2023-03-04T07:42:53;13.27;;;4.77;;
9188;SDS011;34313;50.780;6.084;2023-03-04T07:45:19;19.20;;;5.07;;
9188;SDS011;34313;50.780;6.084;2023-03-04T07:47:45;19.10;;;4.90;;
9188;SDS011;34313;50.780;6.084;2023-03-04T07:50:11;13.10;;;4.90;;
9188;SDS011;34313;50.780;6.084;2023-03-04T07:52:41;9.60;;;4.83;;
9188;SDS011;34313;50.780;6.084;2023-03-04T07:55:10;15.40;;;4.70;;
9188;SDS011;34313;50.780;6.084;2023-03-04T07:57:40;12.20;;;4.37;;
9188;SDS011;34313;50.780;6.084;2023-03-04T08:00:06;12.07;;;4.63;;
9188;SDS011;34313;50.780;6.084;2023-03-04T08:02:33;11.80;;;4.00;;
9188;SDS011;34313;50.780;6.084;2023-03-04T08:04:58;19.83;;;4.30;;
9188;SDS011;34313;50.780;6.084;2023-03-04T08:07:23;14.13;;;4.30;;
9188;SDS011;34313;50.780;6.084;2023-03-04T08:09:49;13.93;;;4.67;;
9188;SDS011;34313;50.780;6.084;2023-03-04T08:12:14;15.50;;;5.27;;
9188;SDS011;34313;50.780;6.084;2023-03-04T08:14:40;11.97;;;5.40;;
9188;SDS011;34313;50.780;6.084;2023-03-04T08:17:05;9.90;;;3.87;;
9188;SDS011;34313;50.780;6.084;2023-03-04T08:19:30;9.47;;;3.53;;
9188;SDS011;34313;50.780;6.084;2023-03-04T08:21:56;20.20;;;3.77;;
9188;SDS011;34313;50.780;6.084;2023-03-04T08:24:21;9.20;;;3.80;;
9188;SDS011;34313;50.780;6.084;2023-03-04T08:26:47;10.50;;;3.80;;
9188;SDS011;34313;50.780;6.084;2023-03-04T08:29:15;13.23;;;3.70;;
9188;SDS011;34313;50.780;6.084;2023-03-04T08:31:44;11.67;;;3.67;;
9188;SDS011;34313;50.780;6.084;2023-03-04T08:34:11;13.17;;;4.43;;
9188;SDS011;34313;50.780;6.084;2023-03-04T08:36:38;18.00;;;4.10;;
9188;SDS011;34313;50.780;6.084;2023-03-04T08:39:05;13.13;;;3.40;;
9188;SDS011;34313;50.780;6.084;2023-03-04T08:41:31;8.30;;;3.27;;
9188;SDS011;34313;50.780;6.084;2023-03-04T08:43:57;12.23;;;3.40;;
9188;SDS011;34313;50.780;6.084;2023-03-04T08:46:24;14.37;;;3.90;;
9188;SDS011;34313;50.780;6.084;2023-03-04T08:48:49;12.03;;;3.47;;
9188;SDS011;34313;50.780;6.084;2023-03-04T08:51:14;10.33;;;4.30;;
9188;SDS011;34313;50.780;6.084;2023-03-04T08:53:41;13.83;;;4.00;;
9188;SDS011;34313;50.780;6.084;2023-03-04T08:56:07;16.23;;;3.73;;
9188;SDS011;34313;50.780;6.084;2023-03-04T08:58:33;11.83;;;4.10;;
9188;SDS011;34313;50.780;6.084;2023-03-04T09:00:59;15.27;;;4.20;;
9188;SDS011;34313;50.780;6.084;2023-03-04T09:03:25;12.03;;;4.10;;
9188;SDS011;34313;50.780;6.084;2023-03-04T09:05:50;9.23;;;3.83;;
9188;SDS011;34313;50.780;6.084;2023-03-04T09:08:16;12.40;;;3.63;;
9188;SDS011;34313;50.780;6.084;2023-03-04T09:10:42;7.80;;;2.57;;
9188;SDS011;34313;50.780;6.084;2023-03-04T09:13:08;5.40;;;1.90;;
9188;SDS011;34313;50.780;6.084;2023-03-04T09:15:42;4.87;;;2.20;;
9188;SDS011;34313;50.780;6.084;2023-03-04T09:18:08;11.83;;;2.03;;
9188;SDS011;34313;50.780;6.084;2023-03-04T09:20:34;9.40;;;1.93;;
9188;SDS011;34313;50.780;6.084;2023-03-04T09:23:00;8.37;;;2.00;;
9188;SDS011;34313;50.780;6.084;2023-03-04T09:25:25;9.90;;;1.67;;
9188;SDS011;34313;50.780;6.084;2023-03-04T09:27:50;9.20;;;1.77;;
9188;SDS011;34313;50.780;6.084;2023-03-04T09:30:16;13.70;;;1.83;;
9188;SDS011;34313;50.780;6.084;2023-03-04T09:32:41;11.23;;;1.80;;
9188;SDS011;34313;50.780;6.084;2023-03-04T09:35:07;9.10;;;1.77;;
9188;SDS011;34313;50.780;6.084;2023-03-04T09:37:33;5.07;;;2.00;;
9188;SDS011;34313;50.780;6.084;2023-03-04T09:39:59;5.83;;;1.70;;
9188;SDS011;34313;50.780;6.084;2023-03-04T09:42:44;4.70;;;1.60;;
9188;SDS011;34313;50.780;6.084;2023-03-04T09:45:14;6.63;;;1.87;;
9188;SDS011;34313;50.780;6.084;2023-03-04T09:47:43;4.13;;;1.63;;
9188;SDS011;34313;50.780;6.084;2023-03-04T09:50:10;8.27;;;1.87;;
9188;SDS011;34313;50.780;6.084;2023-03-04T09:55:22;5.23;;;1.50;;
9188;SDS011;34313;50.780;6.084;2023-03-04T09:57:52;6.00;;;1.90;;
9188;SDS011;34313;50.780;6.084;2023-03-04T10:00:39;6.13;;;1.90;;
9188;SDS011;34313;50.780;6.084;2023-03-04T10:08:23;7.27;;;2.30;;
9188;SDS011;34313;50.780;6.084;2023-03-04T10:10:55;3.33;;;1.57;;
9188;SDS011;34313;50.780;6.084;2023-03-04T10:13:32;7.77;;;2.30;;
9188;SDS011;34313;50.780;6.084;2023-03-04T10:16:03;11.73;;;2.33;;
9188;SDS011;34313;50.780;6.084;2023-03-04T10:18:35;15.03;;;5.93;;
9188;SDS011;34313;50.780;6.084;2023-03-04T10:21:07;5.77;;;2.10;;
9188;SDS011;34313;50.780;6.084;2023-03-04T10:23:48;4.13;;;1.73;;
9188;SDS011;34313;50.780;6.084;2023-03-04T10:26:15;5.33;;;1.67;;
9188;SDS011;34313;50.780;6.084;2023-03-04T10:28:45;3.23;;;1.37;;
9188;SDS011;34313;50.780;6.084;2023-03-04T10:31:14;5.40;;;1.57;;
9188;SDS011;34313;50.780;6.084;2023-03-04T10:33:46;4.90;;;1.80;;
9188;SDS011;34313;50.780;6.084;2023-03-04T10:39:08;8.00;;;1.90;;
9188;SDS011;34313;50.780;6.084;2023-03-04T10:41:39;11.17;;;1.77;;
9188;SDS011;34313;50.780;6.084;2023-03-04T10:46:32;6.13;;;1.60;;
9188;SDS011;34313;50.780;6.084;2023-03-04T10:49:02;5.27;;;1.30;;
9188;SDS011;34313;50.780;6.084;2023-03-04T10:51:28;4.87;;;1.40;;
9188;SDS011;34313;50.780;6.084;2023-03-04T10:54:01;7.70;;;1.40;;
9188;SDS011;34313;50.780;6.084;2023-03-04T10:56:35;11.07;;;1.77;;
9188;SDS011;34313;50.780;6.084;2023-03-04T11:01:57;7.43;;;1.60;;
9188;SDS011;34313;50.780;6.084;2023-03-04T11:04:24;3.20;;;1.40;;
9188;SDS011;34313;50.780;6.084;2023-03-04T11:06:51;2.50;;;1.30;;
9188;SDS011;34313;50.780;6.084;2023-03-04T11:09:21;5.13;;;1.93;;
9188;SDS011;34313;50.780;6.084;2023-03-04T11:11:52;4.93;;;1.90;;
9188;SDS011;34313;50.780;6.084;2023-03-04T11:16:55;5.73;;;1.43;;
9188;SDS011;34313;50.780;6.084;2023-03-04T11:19:30;8.30;;;1.50;;
9188;SDS011;34313;50.780;6.084;2023-03-04T11:22:02;4.57;;;1.53;;
9188;SDS011;34313;50.780;6.084;2023-03-04T11:24:29;6.77;;;1.77;;
9188;SDS011;34313;50.780;6.084;2023-03-04T11:32:27;2.70;;;1.53;;
9188;SDS011;34313;50.780;6.084;2023-03-04T11:37:33;5.47;;;1.53;;
9188;SDS011;34313;50.780;6.084;2023-03-04T11:40:11;3.70;;;1.70;;
9188;SDS011;34313;50.780;6.084;2023-03-04T11:56:36;3.90;;;1.33;;
9188;SDS011;34313;50.780;6.084;2023-03-04T12:02:15;5.77;;;1.53;;
9188;SDS011;34313;50.780;6.084;2023-03-04T12:07:52;5.30;;;1.60;;
9188;SDS011;34313;50.780;6.084;2023-03-04T12:13:29;3.20;;;1.30;;
9188;SDS011;34313;50.780;6.084;2023-03-04T12:21:52;2.90;;;1.40;;
9188;SDS011;34313;50.780;6.084;2023-03-04T12:27:12;2.13;;;1.10;;
9188;SDS011;34313;50.780;6.084;2023-03-04T12:32:28;14.93;;;6.90;;
9188;SDS011;34313;50.780;6.084;2023-03-04T12:40:14;4.03;;;1.30;;
9188;SDS011;34313;50.780;6.084;2023-03-04T12:42:46;5.63;;;1.40;;
9188;SDS011;34313;50.780;6.084;2023-03-04T12:54:15;1.43;;;1.00;;
9188;SDS011;34313;50.780;6.084;2023-03-04T12:56:44;7.57;;;1.47;;
9188;SDS011;34313;50.780;6.084;2023-03-04T12:59:17;5.80;;;2.43;;
9188;SDS011;34313;50.780;6.084;2023-03-04T13:04:31;5.17;;;1.83;;
9188;SDS011;34313;50.780;6.084;2023-03-04T13:10:00;4.40;;;1.70;;
9188;SDS011;34313;50.780;6.084;2023-03-04T13:12:50;3.50;;;1.50;;
9188;SDS011;34313;50.780;6.084;2023-03-04T13:17:46;3.77;;;1.57;;
9188;SDS011;34313;50.780;6.084;2023-03-04T13:22:57;6.37;;;2.00;;
9188;SDS011;34313;50.780;6.084;2023-03-04T13:25:34;4.03;;;1.80;;
9188;SDS011;34313;50.780;6.084;2023-03-04T13:30:38;9.17;;;3.17;;
9188;SDS011;34313;50.780;6.084;2023-03-04T13:51:28;4.80;;;1.80;;
9188;SDS011;34313;50.780;6.084;2023-03-04T13:56:33;3.07;;;1.87;;
9188;SDS011;34313;50.780;6.084;2023-03-04T14:04:00;7.20;;;3.83;;
9188;SDS011;34313;50.780;6.084;2023-03-04T14:06:39;6.97;;;3.23;;
9188;SDS011;34313;50.780;6.084;2023-03-04T14:09:13;11.70;;;3.83;;
9188;SDS011;34313;50.780;6.084;2023-03-04T14:11:39;3.60;;;2.30;;
9188;SDS011;34313;50.780;6.084;2023-03-04T14:14:09;8.17;;;3.07;;
9188;SDS011;34313;50.780;6.084;2023-03-04T14:16:39;8.23;;;3.50;;
9188;SDS011;34313;50.780;6.084;2023-03-04T14:19:25;10.50;;;3.80;;
9188;SDS011;34313;50.780;6.084;2023-03-04T14:21:53;9.00;;;3.13;;
9188;SDS011;34313;50.780;6.084;2023-03-04T14:24:19;4.30;;;2.60;;
9188;SDS011;34313;50.780;6.084;2023-03-04T14:26:46;5.57;;;1.80;;
9188;SDS011;34313;50.780;6.084;2023-03-04T14:29:23;4.47;;;2.20;;
9188;SDS011;34313;50.780;6.084;2023-03-04T14:31:56;2.53;;;1.43;;
9188;SDS011;34313;50.780;6.084;2023-03-04T14:34:25;5.17;;;1.93;;
9188;SDS011;34313;50.780;6.084;2023-03-04T14:36:56;6.03;;;2.73;;
9188;SDS011;34313;50.780;6.084;2023-03-04T14:39:23;3.90;;;2.13;;
9188;SDS011;34313;50.780;6.084;2023-03-04T14:41:51;6.20;;;2.30;;
9188;SDS011;34313;50.780;6.084;2023-03-04T14:44:32;4.50;;;2.27;;
9188;SDS011;34313;50.780;6.084;2023-03-04T14:47:06;4.93;;;2.50;;
9188;SDS011;34313;50.780;6.084;2023-03-04T14:49:35;5.23;;;2.63;;
9188;SDS011;34313;50.780;6.084;2023-03-04T14:52:03;6.03;;;2.60;;
9188;SDS011;34313;50.780;6.084;2023-03-04T14:57:13;5.67;;;2.33;;
9188;SDS011;34313;50.780;6.084;2023-03-04T14:59:45;5.60;;;2.73;;
9188;SDS011;34313;50.780;6.084;2023-03-04T15:02:15;7.23;;;2.07;;
9188;SDS011;34313;50.780;6.084;2023-03-04T15:04:44;4.60;;;3.00;;
9188;SDS011;34313;50.780;6.084;2023-03-04T15:07:13;7.03;;;3.87;;
9188;SDS011;34313;50.780;6.084;2023-03-04T15:09:40;5.53;;;3.50;;
9188;SDS011;34313;50.780;6.084;2023-03-04T15:12:06;5.93;;;2.77;;
9188;SDS011;34313;50.780;6.084;2023-03-04T15:14:50;4.20;;;2.47;;
9188;SDS011;34313;50.780;6.084;2023-03-04T15:17:22;4.80;;;2.70;;
9188;SDS011;34313;50.780;6.084;2023-03-04T15:22:31;7.83;;;2.80;;
9188;SDS011;34313;50.780;6.084;2023-03-04T15:24:57;5.77;;;3.13;;
9188;SDS011;34313;50.780;6.084;2023-03-04T15:27:23;9.03;;;3.67;;
9188;SDS011;34313;50.780;6.084;2023-03-04T15:29:51;6.40;;;3.13;;
9188;SDS011;34313;50.780;6.084;2023-03-04T15:32:20;7.67;;;3.63;;
9188;SDS011;34313;50.780;6.084;2023-03-04T15:34:47;7.20;;;4.10;;
9188;SDS011;34313;50.780;6.084;2023-03-04T15:37:15;7.20;;;4.40;;
9188;SDS011;34313;50.780;6.084;2023-03-04T15:39:45;5.73;;;3.60;;
9188;SDS011;34313;50.780;6.084;2023-03-04T15:42:11;8.50;;;3.93;;
9188;SDS011;34313;50.780;6.084;2023-03-04T15:44:37;8.03;;;5.10;;
9188;SDS011;34313;50.780;6.084;2023-03-04T15:47:03;10.50;;;5.07;;
9188;SDS011;34313;50.780;6.084;2023-03-04T15:49:32;9.33;;;4.67;;
9188;SDS011;34313;50.780;6.084;2023-03-04T15:51:58;12.60;;;5.80;;
9188;SDS011;34313;50.780;6.084;2023-03-04T15:54:23;8.40;;;6.13;;
9188;SDS011;34313;50.780;6.084;2023-03-04T15:56:52;11.77;;;6.00;;
9188;SDS011;34313;50.780;6.084;2023-03-04T15:59:17;6.50;;;4.93;;
9188;SDS011;34313;50.780;6.084;2023-03-04T16:01:43;11.90;;;5.93;;
9188;SDS011;34313;50.780;6.084;2023-03-04T16:04:12;9.17;;;5.47;;
9188;SDS011;34313;50.780;6.084;2023-03-04T16:06:40;7.07;;;4.77;;
9188;SDS011;34313;50.780;6.084;2023-03-04T16:09:09;18.67;;;6.50;;
9188;SDS011;34313;50.780;6.084;2023-03-04T16:11:38;10.20;;;6.67;;
9188;SDS011;34313;50.780;6.084;2023-03-04T16:14:08;9.70;;;6.10;;
9188;SDS011;34313;50.780;6.084;2023-03-04T16:16:35;14.13;;;5.90;;
9188;SDS011;34313;50.780;6.084;2023-03-04T16:19:01;14.20;;;6.93;;
9188;SDS011;34313;50.780;6.084;2023-03-04T16:21:26;8.43;;;5.90;;
9188;SDS011;34313;50.780;6.084;2023-03-04T16:23:51;8.30;;;5.73;;
9188;SDS011;34313;50.780;6.084;2023-03-04T16:26:25;9.90;;;5.70;;
9188;SDS011;34313;50.780;6.084;2023-03-04T16:28:52;13.30;;;5.87;;
9188;SDS011;34313;50.780;6.084;2023-03-04T16:31:18;11.80;;;6.73;;
9188;SDS011;34313;50.780;6.084;2023-03-04T16:33:45;12.80;;;6.27;;
9188;SDS011;34313;50.780;6.084;2023-03-04T16:36:12;14.53;;;7.40;;
9188;SDS011;34313;50.780;6.084;2023-03-04T16:38:39;10.53;;;6.63;;
9188;SDS011;34313;50.780;6.084;2023-03-04T16:41:08;10.17;;;6.70;;
9188;SDS011;34313;50.780;6.084;2023-03-04T16:43:37;12.33;;;6.80;;
9188;SDS011;34313;50.780;6.084;2023-03-04T16:46:02;16.80;;;8.73;;
9188;SDS011;34313;50.780;6.084;2023-03-04T16:48:28;17.70;;;8.83;;
9188;SDS011;34313;50.780;6.084;2023-03-04T16:50:54;17.13;;;8.20;;
9188;SDS011;34313;50.780;6.084;2023-03-04T16:53:36;13.40;;;7.20;;